createdAt,value
2023-05-15T00:01:41.314Z,100845.58
2023-05-15T00:04:08.348Z,100845.53
2023-05-15T00:06:35.619Z,100847.02
2023-05-15T00:09:02.657Z,100848.75
2023-05-15T00:11:29.740Z,100849.89
2023-05-15T00:13:56.817Z,100844.91
2023-05-15T00:16:24.662Z,100841.91
2023-05-15T00:18:51.744Z,100839.63
2023-05-15T00:21:20.207Z,100842.88
2023-05-15T00:23:47.879Z,100841.36
2023-05-15T00:26:15.965Z,100842.70
2023-05-15T00:28:43.125Z,100841.75
2023-05-15T00:31:11.367Z,100840.45
2023-05-15T00:33:38.427Z,100844.85
2023-05-15T00:36:06.123Z,100844.09
2023-05-15T00:38:33.930Z,100842.63
2023-05-15T00:41:01.930Z,100846.80
2023-05-15T00:43:29.017Z,100844.92
2023-05-15T00:45:56.154Z,100841.71
2023-05-15T00:48:23.156Z,100842.27
2023-05-15T00:50:51.705Z,100841.04
2023-05-15T00:53:19.114Z,100846.64
2023-05-15T00:55:47.316Z,100844.18
2023-05-15T00:58:15.070Z,100845.95
2023-05-15T01:00:45.296Z,100842.98
2023-05-15T01:03:12.439Z,100837.38
2023-05-15T01:05:39.529Z,100834.70
2023-05-15T01:08:23.004Z,100832.34
2023-05-15T01:10:51.148Z,100829.16
2023-05-15T01:13:22.666Z,100835.98
2023-05-15T01:15:50.082Z,100836.40
2023-05-15T01:18:17.599Z,100840.10
2023-05-15T01:21:06.444Z,100837.34
2023-05-15T01:24:17.262Z,100837.85
2023-05-15T01:27:20.506Z,100835.30
2023-05-15T01:29:57.111Z,100833.11
2023-05-15T01:32:28.730Z,100834.67
2023-05-15T01:35:05.541Z,100836.11
2023-05-15T01:37:34.595Z,100833.75
2023-05-15T01:40:03.463Z,100831.82
2023-05-15T01:42:36.868Z,100830.52
2023-05-15T01:45:06.028Z,100831.11
2023-05-15T01:47:42.305Z,100831.23
2023-05-15T01:50:10.776Z,100831.23
2023-05-15T01:52:40.616Z,100832.36
2023-05-15T01:55:08.101Z,100834.86
2023-05-15T01:57:35.389Z,100839.54
2023-05-15T02:00:03.234Z,100832.17
2023-05-15T02:02:50.297Z,100829.77
2023-05-15T02:05:18.912Z,100826.84
2023-05-15T02:07:46.774Z,100827.69
2023-05-15T02:10:15.672Z,100830.27
2023-05-15T02:12:47.176Z,100832.73
2023-05-15T02:15:14.385Z,100832.80
2023-05-15T02:17:41.681Z,100829.85
2023-05-15T02:20:09.238Z,100824.27
2023-05-15T02:22:38.331Z,100823.45
2023-05-15T02:25:06.332Z,100824.26
2023-05-15T02:28:00.508Z,100824.86
2023-05-15T02:30:46.050Z,100828.94
2023-05-15T02:33:22.300Z,100823.52
2023-05-15T02:35:57.241Z,100822.66
2023-05-15T02:38:29.535Z,100823.40
2023-05-15T02:40:58.982Z,100824.57
2023-05-15T02:43:26.222Z,100828.33
2023-05-15T02:45:53.388Z,100827.51
2023-05-15T02:48:20.582Z,100827.27
2023-05-15T02:50:47.652Z,100828.50
2023-05-15T02:53:16.264Z,100827.52
2023-05-15T02:55:43.537Z,100825.89
2023-05-15T02:58:10.992Z,100825.73
2023-05-15T03:00:38.058Z,100824.20
2023-05-15T03:03:05.128Z,100819.65
2023-05-15T03:05:32.183Z,100817.32
2023-05-15T03:08:01.308Z,100820.35
2023-05-15T03:10:28.394Z,100823.31
2023-05-15T03:12:58.634Z,100822.75
2023-05-15T03:15:26.052Z,100823.14
2023-05-15T03:17:53.538Z,100820.58
2023-05-15T03:20:20.672Z,100819.70
2023-05-15T03:22:47.758Z,100817.76
2023-05-15T03:25:18.406Z,100814.95
2023-05-15T03:27:46.719Z,100817.88
2023-05-15T03:30:13.818Z,100820.79
2023-05-15T03:32:40.928Z,100816.95
2023-05-15T03:35:08.511Z,100815.78
2023-05-15T03:37:35.593Z,100819.34
2023-05-15T03:40:03.710Z,100822.75
2023-05-15T03:42:30.804Z,100824.48
2023-05-15T03:44:58.008Z,100824.69
2023-05-15T03:47:26.597Z,100827.74
2023-05-15T03:49:53.830Z,100826.02
2023-05-15T03:52:21.123Z,100828.92
2023-05-15T03:54:48.202Z,100830.04
2023-05-15T03:57:15.257Z,100829.16
2023-05-15T03:59:42.321Z,100822.27
2023-05-15T04:02:09.496Z,100824.69
2023-05-15T04:04:37.758Z,100825.39
2023-05-15T04:07:05.816Z,100826.52
2023-05-15T04:09:33.023Z,100827.91
2023-05-15T04:12:00.064Z,100826.20
2023-05-15T04:14:27.168Z,100827.85
2023-05-15T04:16:54.314Z,100825.88
2023-05-15T04:19:21.439Z,100829.98
2023-05-15T04:21:48.541Z,100831.40
2023-05-15T04:24:16.201Z,100828.53
2023-05-15T04:26:43.565Z,100829.65
2023-05-15T04:29:10.682Z,100829.98
2023-05-15T04:31:38.756Z,100831.03
2023-05-15T04:34:06.720Z,100829.83
2023-05-15T04:36:34.348Z,100828.10
2023-05-15T04:39:01.405Z,100826.15
2023-05-15T04:41:28.707Z,100823.23
2023-05-15T04:43:56.264Z,100818.36
2023-05-15T04:46:23.457Z,100813.87
2023-05-15T04:48:51.203Z,100816.38
2023-05-15T04:51:18.311Z,100814.91
2023-05-15T04:53:45.446Z,100815.66
2023-05-15T04:56:13.732Z,100813.51
2023-05-15T04:58:41.675Z,100814.25
2023-05-15T05:01:08.867Z,100812.98
2023-05-15T05:03:35.959Z,100809.15
2023-05-15T05:06:03.029Z,100809.59
2023-05-15T05:08:30.075Z,100808.27
2023-05-15T05:10:59.994Z,100806.07
2023-05-15T05:13:28.058Z,100802.64
2023-05-15T05:15:55.296Z,100804.05
2023-05-15T05:18:22.674Z,100801.09
2023-05-15T05:20:50.827Z,100797.60
2023-05-15T05:23:19.331Z,100795.70
2023-05-15T05:25:46.403Z,100790.30
2023-05-15T05:28:13.442Z,100793.30
2023-05-15T05:30:40.866Z,100795.66
2023-05-15T05:33:08.152Z,100793.46
2023-05-15T05:35:35.268Z,100796.42
2023-05-15T05:38:02.310Z,100794.94
2023-05-15T05:40:29.955Z,100793.05
2023-05-15T05:43:03.315Z,100793.35
2023-05-15T05:45:31.534Z,100789.66
2023-05-15T05:47:59.879Z,100787.17
2023-05-15T05:50:27.013Z,100782.60
2023-05-15T05:52:54.017Z,100784.14
2023-05-15T05:55:21.077Z,100785.29
2023-05-15T05:57:48.074Z,100787.71
2023-05-15T06:00:15.551Z,100784.45
2023-05-15T06:02:42.712Z,100785.06
2023-05-15T06:05:10.422Z,100784.47
2023-05-15T06:07:37.562Z,100786.91
2023-05-15T06:10:05.192Z,100784.52
2023-05-15T06:12:32.233Z,100781.12
2023-05-15T06:14:59.277Z,100784.59
2023-05-15T06:17:26.431Z,100785.83
2023-05-15T06:19:55.337Z,100784.61
2023-05-15T06:22:32.822Z,100785.70
2023-05-15T06:24:59.976Z,100777.91
2023-05-15T06:27:27.724Z,100777.03
2023-05-15T06:29:55.051Z,100780.50
2023-05-15T06:32:22.107Z,100778.69
2023-05-15T06:34:49.233Z,100781.84
2023-05-15T06:37:16.315Z,100774.01
2023-05-15T06:39:43.420Z,100774.08
2023-05-15T06:42:10.616Z,100768.67
2023-05-15T06:44:38.352Z,100763.64
2023-05-15T06:47:06.139Z,100764.41
2023-05-15T06:49:33.547Z,100764.61
2023-05-15T06:52:00.708Z,100762.36
2023-05-15T06:54:27.863Z,100759.93
2023-05-15T06:57:08.505Z,100757.01
2023-05-15T06:59:36.012Z,100756.92
2023-05-15T07:02:03.815Z,100751.88
2023-05-15T07:04:33.815Z,100751.57
2023-05-15T07:07:00.876Z,100750.16
2023-05-15T07:09:29.546Z,100748.59
2023-05-15T07:11:57.194Z,100750.63
2023-05-15T07:14:24.436Z,100754.20
2023-05-15T07:16:51.506Z,100749.77
2023-05-15T07:19:22.073Z,100746.71
2023-05-15T07:39:07.487Z,100733.77
2023-05-15T07:41:34.581Z,100733.92
2023-05-15T07:44:01.575Z,100732.15
2023-05-15T07:46:28.749Z,100727.59
2023-05-15T07:48:56.837Z,100726.72
2023-05-15T07:51:26.908Z,100725.31
2023-05-15T07:53:54.791Z,100725.04
2023-05-15T07:56:21.824Z,100719.77
2023-05-15T07:58:49.845Z,100714.93
2023-05-15T08:01:22.260Z,100715.63
2023-05-15T08:03:49.723Z,100712.08
2023-05-15T13:22:30.657Z,100505.06
2023-05-15T13:24:59.241Z,100499.65
2023-05-15T13:27:26.883Z,100499.84
2023-05-15T13:29:56.185Z,100500.50
2023-05-15T13:32:31.997Z,100505.19
2023-05-15T13:35:04.349Z,100504.26
2023-05-15T13:37:33.181Z,100501.46
2023-05-15T13:40:00.085Z,100495.98
2023-05-15T13:42:26.953Z,100495.13
2023-05-15T13:44:53.748Z,100494.27
2023-05-15T13:47:21.421Z,100492.48
2023-05-15T13:49:48.316Z,100490.75
2023-05-15T13:52:15.268Z,100493.11
2023-05-15T13:54:42.493Z,100488.35
2023-05-15T13:57:09.994Z,100483.99
2023-05-15T13:59:37.394Z,100482.52
2023-05-15T14:02:04.409Z,100479.14
2023-05-15T14:04:31.285Z,100474.89
2023-05-15T14:06:58.132Z,100471.27
2023-05-15T14:09:28.432Z,100473.40
2023-05-15T14:11:55.912Z,100475.86
2023-05-15T14:14:23.027Z,100475.73
2023-05-15T14:16:49.984Z,100471.11
2023-05-15T14:19:17.426Z,100466.70
2023-05-15T14:21:44.490Z,100461.95
2023-05-15T14:24:11.336Z,100456.86
2023-05-15T14:26:38.522Z,100459.71
2023-05-15T14:29:05.620Z,100457.20
2023-05-15T14:31:33.386Z,100461.44
2023-05-15T14:34:00.857Z,100458.14
2023-05-15T14:36:27.746Z,100458.37
2023-05-15T14:38:54.654Z,100463.08
2023-05-15T14:41:21.768Z,100460.88
2023-05-15T14:43:51.561Z,100454.52
2023-05-15T14:46:18.898Z,100453.05
2023-05-15T14:48:45.936Z,100456.67
2023-05-15T14:51:12.751Z,100451.35
2023-05-15T14:53:39.556Z,100451.13
2023-05-15T14:56:06.378Z,100450.22
2023-05-15T14:58:33.771Z,100451.25
2023-05-15T15:01:00.678Z,100446.19
2023-05-15T15:03:29.982Z,100440.37
2023-05-15T15:05:58.030Z,100439.58
2023-05-15T15:08:25.294Z,100433.98
2023-05-15T15:10:52.073Z,100430.70
2023-05-15T15:13:19.026Z,100427.95
2023-05-15T15:15:46.019Z,100430.20
2023-05-15T15:18:12.892Z,100428.08
2023-05-15T15:20:40.652Z,100426.66
2023-05-15T15:23:07.391Z,100423.87
2023-05-15T15:25:35.049Z,100418.04
2023-05-15T15:28:02.335Z,100419.59
2023-05-15T15:30:30.935Z,100419.77
2023-05-15T15:33:00.795Z,100423.66
2023-05-15T15:35:28.650Z,100426.00
2023-05-15T15:37:55.975Z,100422.90
2023-05-15T15:40:23.778Z,100421.94
2023-05-15T15:42:51.171Z,100425.20
2023-05-15T15:45:18.017Z,100428.30
2023-05-15T15:47:45.102Z,100428.55
2023-05-15T15:50:12.027Z,100428.80
2023-05-15T15:52:39.620Z,100429.49
2023-05-15T15:55:07.153Z,100429.13
2023-05-15T15:57:34.507Z,100425.44
2023-05-15T16:00:03.527Z,100421.29
2023-05-15T16:02:32.867Z,100423.17
2023-05-15T16:05:01.363Z,100426.53
2023-05-15T16:07:28.153Z,100427.23
2023-05-15T16:10:04.222Z,100426.68
2023-05-15T16:12:38.759Z,100423.22
2023-05-15T16:15:20.888Z,100422.12
2023-05-15T16:17:53.658Z,100425.33
2023-05-15T16:20:22.156Z,100422.17
2023-05-15T16:22:49.320Z,100424.40
2023-05-15T16:25:16.404Z,100423.40
2023-05-15T16:27:45.940Z,100421.55
2023-05-15T16:30:13.302Z,100424.78
2023-05-15T16:32:40.263Z,100420.65
2023-05-15T16:35:07.920Z,100425.36
2023-05-15T16:37:35.146Z,100425.32
2023-05-15T16:40:03.811Z,100425.96
2023-05-15T16:42:36.841Z,100425.02
2023-05-15T16:45:04.902Z,100429.14
2023-05-15T16:47:31.812Z,100428.61
2023-05-15T16:49:58.732Z,100425.05
2023-05-15T16:52:25.616Z,100427.48
2023-05-15T16:54:54.946Z,100428.23
2023-05-15T16:57:22.394Z,100432.17
2023-05-15T16:59:49.369Z,100429.73
2023-05-15T17:02:16.442Z,100429.92
2023-05-15T17:04:43.453Z,100429.21
2023-05-15T17:07:10.308Z,100427.19
2023-05-15T17:09:39.701Z,100426.30
2023-05-15T17:12:06.868Z,100430.20
2023-05-15T17:14:34.399Z,100432.38
2023-05-15T17:17:02.422Z,100433.31
2023-05-15T17:19:30.735Z,100438.02
2023-05-15T17:21:57.626Z,100445.96
2023-05-15T17:24:25.024Z,100452.15
2023-05-15T17:26:55.008Z,100459.50
2023-05-15T17:29:23.889Z,100462.77
2023-05-15T17:31:51.790Z,100459.01
2023-05-15T17:34:18.866Z,100464.85
2023-05-15T17:36:47.961Z,100467.25
2023-05-15T17:39:14.966Z,100468.11
2023-05-15T17:41:42.426Z,100466.16
2023-05-15T17:44:09.211Z,100466.77
2023-05-15T17:46:36.073Z,100468.11
2023-05-15T17:49:03.191Z,100473.40
2023-05-15T17:51:30.489Z,100477.92
2023-05-15T17:53:57.334Z,100476.76
2023-05-15T17:56:25.022Z,100478.99
2023-05-15T17:58:51.873Z,100483.89
2023-05-15T18:01:19.586Z,100488.64
2023-05-15T18:03:46.737Z,100493.45
2023-05-15T18:06:13.987Z,100490.20
2023-05-15T18:08:47.414Z,100491.69
2023-05-15T18:11:21.952Z,100496.45
2023-05-15T18:13:49.699Z,100498.48
2023-05-15T18:16:17.871Z,100497.30
2023-05-15T18:18:45.498Z,100498.55
2023-05-15T18:21:12.382Z,100505.30
2023-05-15T18:23:39.268Z,100508.73
2023-05-15T18:26:07.380Z,100511.65
2023-05-15T18:28:34.636Z,100513.04
2023-05-15T18:31:01.520Z,100515.33
2023-05-15T18:33:29.097Z,100518.52
2023-05-15T18:35:55.819Z,100519.24
2023-05-15T18:38:22.631Z,100520.19
2023-05-15T18:40:49.492Z,100519.52
2023-05-15T18:43:19.934Z,100523.85
2023-05-15T18:45:50.063Z,100523.52
2023-05-15T18:48:16.841Z,100526.63
2023-05-15T18:50:43.744Z,100530.78
2023-05-15T18:53:10.582Z,100533.27
2023-05-15T18:55:39.006Z,100535.90
2023-05-15T18:58:06.128Z,100539.64
2023-05-15T19:00:38.842Z,100539.66
2023-05-15T19:03:07.947Z,100542.73
2023-05-15T19:05:35.254Z,100542.05
2023-05-15T19:08:02.630Z,100538.63
2023-05-15T19:10:30.103Z,100537.04
2023-05-15T19:12:57.369Z,100533.88
2023-05-15T19:15:24.518Z,100536.22
2023-05-15T19:17:55.696Z,100530.98
2023-05-15T19:20:22.559Z,100526.86
2023-05-15T19:22:49.552Z,100528.20
2023-05-15T19:25:16.466Z,100520.48
2023-05-15T19:27:43.446Z,100526.98
2023-05-15T19:30:11.282Z,100529.18
2023-05-15T19:32:38.707Z,100534.08
2023-05-15T19:35:06.096Z,100529.20
2023-05-15T19:37:33.462Z,100528.73
2023-05-15T19:40:00.729Z,100531.91
2023-05-15T19:42:27.628Z,100536.77
2023-05-15T19:44:54.444Z,100538.50
2023-05-15T19:47:21.553Z,100542.27
2023-05-15T19:49:49.098Z,100548.11
2023-05-15T19:52:16.156Z,100548.08
2023-05-15T19:54:43.751Z,100549.84
2023-05-15T19:57:13.191Z,100553.66
2023-05-15T19:59:40.179Z,100556.71
2023-05-15T20:02:09.949Z,100560.64
2023-05-15T20:04:37.159Z,100559.84
2023-05-15T20:07:04.176Z,100564.15
2023-05-15T20:09:33.875Z,100564.58
2023-05-15T20:12:02.810Z,100566.23
2023-05-15T20:14:31.561Z,100566.84
2023-05-15T20:16:58.425Z,100568.71
2023-05-15T20:19:25.762Z,100572.23
2023-05-15T20:21:52.701Z,100572.95
2023-05-15T20:24:25.831Z,100574.71
2023-05-15T20:26:54.066Z,100582.48
2023-05-15T20:29:22.433Z,100586.07
2023-05-15T20:31:51.755Z,100590.98
2023-05-15T20:34:19.771Z,100591.44
2023-05-15T20:36:46.821Z,100596.02
2023-05-15T20:39:16.782Z,100596.09
2023-05-15T20:41:43.584Z,100596.20
2023-05-15T20:44:12.025Z,100592.82
2023-05-15T20:46:39.899Z,100595.92
2023-05-15T20:49:07.124Z,100595.25
2023-05-15T20:51:34.029Z,100596.13
2023-05-15T20:54:00.997Z,100593.58
2023-05-15T20:56:28.025Z,100595.02
2023-05-15T20:58:56.399Z,100593.14
2023-05-15T21:01:26.048Z,100589.48
2023-05-15T21:03:53.022Z,100586.23
2023-05-15T21:06:21.158Z,100582.48
2023-05-15T21:08:48.552Z,100583.44
2023-05-15T21:11:15.983Z,100585.67
2023-05-15T21:13:42.831Z,100587.73
2023-05-15T21:16:09.734Z,100592.10
2023-05-15T21:18:41.157Z,100597.31
2023-05-15T21:21:08.120Z,100593.02
2023-05-15T21:23:37.926Z,100592.98
2023-05-15T21:26:04.990Z,100585.69
2023-05-15T21:28:31.999Z,100584.10
2023-05-15T21:31:06.060Z,100581.12
2023-05-15T21:33:33.337Z,100576.81
2023-05-15T21:36:00.698Z,100578.30
2023-05-15T21:38:28.413Z,100581.23
2023-05-15T21:40:55.345Z,100581.00
2023-05-15T21:43:22.393Z,100585.36
2023-05-15T21:45:50.157Z,100593.11
2023-05-15T21:48:17.120Z,100593.62
2023-05-15T21:50:45.059Z,100596.30
2023-05-15T21:53:12.511Z,100596.02
2023-05-15T21:55:39.492Z,100591.65
2023-05-15T21:58:06.907Z,100593.30
2023-05-15T22:00:34.315Z,100593.19
2023-05-15T22:03:01.360Z,100595.43
2023-05-15T22:05:28.388Z,100597.84
2023-05-15T22:07:55.768Z,100595.79
2023-05-15T22:10:22.580Z,100596.44
2023-05-15T22:12:49.621Z,100596.13
2023-05-15T22:15:16.680Z,100592.87
2023-05-15T22:17:43.674Z,100588.54
2023-05-15T22:20:11.238Z,100583.61
2023-05-15T22:22:38.858Z,100584.58
2023-05-15T22:25:06.313Z,100583.51
2023-05-15T22:27:33.583Z,100583.87
2023-05-15T22:30:01.018Z,100583.14
2023-05-15T22:32:30.503Z,100578.73
2023-05-15T22:34:58.206Z,100579.56
2023-05-15T22:37:25.088Z,100574.34
2023-05-15T22:39:52.152Z,100582.36
2023-05-15T22:42:20.631Z,100579.29
2023-05-15T22:44:47.599Z,100571.94
2023-05-15T22:47:14.476Z,100574.67
2023-05-15T22:49:41.431Z,100572.95
2023-05-15T22:52:08.297Z,100575.27
2023-05-15T22:54:35.131Z,100570.16
2023-05-15T22:57:02.013Z,100568.15
2023-05-15T22:59:28.970Z,100564.73
2023-05-15T23:01:55.925Z,100562.11
2023-05-15T23:04:22.935Z,100557.10
2023-05-15T23:06:49.850Z,100553.67
2023-05-15T23:09:16.711Z,100552.08
2023-05-15T23:11:43.588Z,100549.27
2023-05-15T23:14:11.544Z,100547.30
2023-05-15T23:16:38.329Z,100546.92
2023-05-15T23:19:05.217Z,100543.09
2023-05-15T23:21:32.420Z,100542.30
2023-05-15T23:24:00.824Z,100540.40
2023-05-15T23:26:27.640Z,100541.17
2023-05-15T23:28:54.545Z,100542.03
2023-05-15T23:31:21.540Z,100537.11
2023-05-15T23:33:48.629Z,100537.84
2023-05-15T23:36:20.022Z,100536.43
2023-05-15T23:38:46.788Z,100536.36
2023-05-15T23:41:13.666Z,100536.76
2023-05-15T23:43:40.572Z,100533.46
2023-05-15T23:46:07.403Z,100531.80
2023-05-15T23:48:35.489Z,100531.83
2023-05-15T23:51:02.990Z,100530.56
2023-05-15T23:53:30.720Z,100528.63
2023-05-15T23:55:57.562Z,100530.20
2023-05-15T23:58:24.429Z,100531.03
